Time;durP1;ratioP1;P1;durP2;ratioP2;P2;SDS_P1;SDS_P2;PMS_P1;PMS_P2;Temp;Humidity;BMP_temperature;BMP_pressure;BME280_temperature;BME280_humidity;BME280_pressure;Samples;Min_cycle;Max_cycle;Signal;HPM_P1;HPM_P2
2021/05/16 00:00:56;;;;;;;13.13;5.90;;;10.50;99.90;;;;;;4713831;30;20056;-78
2021/05/16 00:03:22;;;;;;;12.00;6.85;;;10.50;99.90;;;;;;4743906;30;20052;-78
2021/05/16 00:05:49;;;;;;;10.68;6.88;;;10.60;99.90;;;;;;4742639;30;20048;-78
2021/05/16 00:08:15;;;;;;;17.08;8.35;;;10.60;99.90;;;;;;4714556;30;20146;-78
2021/05/16 00:10:43;;;;;;;13.20;7.53;;;10.70;99.90;;;;;;4740222;30;20040;-79
2021/05/16 00:13:10;;;;;;;12.40;7.82;;;10.80;99.90;;;;;;4746179;30;20059;-78
2021/05/16 00:15:38;;;;;;;9.32;5.65;;;10.80;99.90;;;;;;4728091;30;20052;-79
2021/05/16 00:18:05;;;;;;;10.00;6.35;;;10.90;99.90;;;;;;4701741;30;20819;-79
2021/05/16 00:20:33;;;;;;;12.90;7.57;;;10.90;99.90;;;;;;4728315;30;20035;-78
2021/05/16 00:23:01;;;;;;;17.25;9.30;;;10.90;99.90;;;;;;4744021;30;20056;-78
2021/05/16 00:25:28;;;;;;;12.18;8.05;;;11.00;99.90;;;;;;4742162;30;20052;-79
2021/05/16 00:27:56;;;;;;;16.00;8.38;;;11.00;99.90;;;;;;4744306;30;20048;-78
2021/05/16 00:30:27;;;;;;;16.63;8.38;;;11.00;99.90;;;;;;4743314;30;20405;-78
2021/05/16 00:32:56;;;;;;;15.57;9.25;;;11.10;99.90;;;;;;4727826;30;20052;-78
2021/05/16 00:35:29;;;;;;;12.48;7.50;;;11.10;99.90;;;;;;4741379;30;20044;-78
2021/05/16 00:37:59;;;;;;;18.75;9.18;;;11.10;99.90;;;;;;4743273;30;20051;-78
2021/05/16 00:40:27;;;;;;;19.45;10.35;;;11.10;99.90;;;;;;4726146;30;20064;-78
2021/05/16 00:42:54;;;;;;;15.93;9.00;;;11.10;99.90;;;;;;4742846;30;20059;-79
2021/05/16 00:45:22;;;;;;;19.98;9.43;;;11.10;99.90;;;;;;4741133;30;20060;-78
2021/05/16 00:48:00;;;;;;;16.17;8.70;;;11.10;99.90;;;;;;4743242;30;20052;-78
2021/05/16 00:50:30;;;;;;;16.65;8.45;;;11.10;99.90;;;;;;4741276;30;20048;-78
2021/05/16 00:52:57;;;;;;;23.48;9.18;;;11.20;99.90;;;;;;4727231;30;20058;-78
2021/05/16 00:55:24;;;;;;;21.70;9.48;;;11.10;99.90;;;;;;4743656;30;20060;-78
2021/05/16 00:57:52;;;;;;;17.55;8.02;;;11.10;99.90;;;;;;4698953;30;20047;-79
2021/05/16 01:00:27;;;;;;;13.80;6.82;;;11.10;99.90;;;;;;4727373;30;20048;-78
2021/05/16 01:03:00;;;;;;;15.20;6.97;;;11.20;99.90;;;;;;4713923;30;20036;-78
2021/05/16 01:05:29;;;;;;;13.77;6.22;;;11.20;99.90;;;;;;4741556;30;20036;-78
2021/05/16 01:07:55;;;;;;;14.52;5.90;;;11.20;99.90;;;;;;4741699;30;20040;-79
2021/05/16 01:10:22;;;;;;;26.65;9.57;;;11.20;99.90;;;;;;4725910;30;20063;-78
2021/05/16 01:12:51;;;;;;;15.10;7.97;;;11.30;99.90;;;;;;4742973;30;20056;-79
2021/05/16 01:15:21;;;;;;;21.85;8.10;;;11.20;99.90;;;;;;4728171;30;20051;-79
2021/05/16 01:17:48;;;;;;;18.67;8.00;;;11.30;99.90;;;;;;4743412;30;20077;-78
2021/05/16 01:20:19;;;;;;;17.20;7.13;;;11.20;99.90;;;;;;4727521;30;20066;-80
2021/05/16 01:22:53;;;;;;;21.02;8.95;;;11.20;99.90;;;;;;4720324;30;20052;-80
2021/05/16 01:25:21;;;;;;;18.80;7.45;;;11.20;99.90;;;;;;4723521;30;20048;-80
2021/05/16 01:27:47;;;;;;;22.33;8.38;;;11.20;99.90;;;;;;4745164;30;20052;-80
2021/05/16 01:30:15;;;;;;;21.08;7.60;;;11.10;99.90;;;;;;4728100;30;20044;-79
2021/05/16 01:32:42;;;;;;;19.25;7.70;;;11.10;99.90;;;;;;4741125;30;20056;-80
2021/05/16 01:35:10;;;;;;;19.75;7.78;;;11.10;99.90;;;;;;4742517;30;20048;-79
2021/05/16 01:37:36;;;;;;;14.88;6.90;;;11.00;99.90;;;;;;4729649;30;20060;-79
2021/05/16 01:40:06;;;;;;;14.50;6.93;;;11.00;99.90;;;;;;4726255;30;20060;-80
2021/05/16 01:42:33;;;;;;;14.98;7.07;;;11.00;99.90;;;;;;4732461;30;20071;-79
2021/05/16 01:45:04;;;;;;;16.30;7.38;;;11.10;99.90;;;;;;4727477;30;20044;-80
2021/05/16 01:47:31;;;;;;;16.10;7.47;;;11.00;99.90;;;;;;4700496;30;20040;-79
2021/05/16 01:50:09;;;;;;;22.40;7.40;;;11.10;99.90;;;;;;4728293;30;20055;-80
2021/05/16 01:52:36;;;;;;;23.15;7.72;;;11.10;99.90;;;;;;4743680;30;20055;-79
2021/05/16 01:55:03;;;;;;;23.92;6.97;;;11.10;99.90;;;;;;4743410;30;20586;-79
2021/05/16 01:57:31;;;;;;;13.63;6.07;;;11.10;99.90;;;;;;4730667;30;20503;-80
2021/05/16 01:59:59;;;;;;;17.77;6.53;;;11.10;99.90;;;;;;4725512;30;20048;-80
2021/05/16 02:02:26;;;;;;;24.00;7.18;;;11.10;99.90;;;;;;4729234;30;20044;-80
2021/05/16 02:04:54;;;;;;;22.33;7.72;;;11.10;99.90;;;;;;4714770;30;20511;-80
2021/05/16 02:07:21;;;;;;;26.85;7.57;;;11.10;99.90;;;;;;4729273;30;20040;-79
2021/05/16 02:09:47;;;;;;;25.17;6.78;;;11.10;99.90;;;;;;4742190;30;20055;-80
2021/05/16 02:12:18;;;;;;;29.55;7.78;;;11.10;99.90;;;;;;4742390;30;20048;-80
2021/05/16 02:14:45;;;;;;;23.80;7.72;;;11.00;99.90;;;;;;4728331;30;20052;-80
2021/05/16 02:17:14;;;;;;;25.17;9.57;;;11.00;99.90;;;;;;4729556;30;20056;-80
2021/05/16 02:19:42;;;;;;;23.30;7.88;;;11.00;99.90;;;;;;4728995;30;20051;-80
2021/05/16 02:22:09;;;;;;;18.95;7.13;;;11.00;99.90;;;;;;4728249;30;20056;-80
2021/05/16 02:24:45;;;;;;;27.15;7.72;;;11.00;99.90;;;;;;4728717;30;20914;-80
2021/05/16 02:27:26;;;;;;;17.63;7.38;;;11.00;99.90;;;;;;4730046;30;20040;-80
2021/05/16 02:29:55;;;;;;;38.38;12.73;;;11.00;99.90;;;;;;4727789;30;20044;-80
2021/05/16 02:32:22;;;;;;;25.98;8.65;;;11.00;99.90;;;;;;4741908;30;20044;-80
2021/05/16 02:34:53;;;;;;;26.50;8.52;;;11.00;99.90;;;;;;4713814;30;20052;-79
2021/05/16 02:37:30;;;;;;;28.13;8.75;;;11.00;99.90;;;;;;4728927;30;20048;-80
2021/05/16 02:39:57;;;;;;;20.38;6.75;;;11.00;99.90;;;;;;4739408;30;20052;-80
2021/05/16 02:42:24;;;;;;;26.27;7.43;;;11.00;99.90;;;;;;4727386;30;20774;-79
2021/05/16 02:44:51;;;;;;;32.13;8.23;;;11.00;99.90;;;;;;4728867;30;20052;-79
2021/05/16 02:47:17;;;;;;;32.95;10.00;;;11.00;99.90;;;;;;4746848;30;20044;-77
2021/05/16 02:49:44;;;;;;;23.10;6.90;;;11.00;99.90;;;;;;4701991;30;20409;-78
2021/05/16 02:52:10;;;;;;;27.65;7.47;;;11.00;99.90;;;;;;4746179;30;20059;-78
2021/05/16 02:54:37;;;;;;;30.20;8.02;;;11.00;99.90;;;;;;4706128;30;20055;-78
2021/05/16 02:57:05;;;;;;;33.00;7.88;;;11.00;99.90;;;;;;4743199;30;20055;-78
2021/05/16 02:59:32;;;;;;;23.92;7.38;;;11.00;99.90;;;;;;4743102;30;20048;-77
2021/05/16 03:01:59;;;;;;;23.55;7.40;;;11.00;99.90;;;;;;4743922;30;20044;-78
2021/05/16 03:04:27;;;;;;;19.05;7.00;;;11.00;99.90;;;;;;4728771;30;20059;-78
2021/05/16 03:06:53;;;;;;;27.88;8.40;;;11.00;99.90;;;;;;4744725;30;20040;-77
2021/05/16 03:09:20;;;;;;;31.27;10.10;;;11.00;99.90;;;;;;4735143;30;20044;-78
2021/05/16 03:11:47;;;;;;;31.80;9.95;;;11.00;99.90;;;;;;4730208;30;20059;-78
2021/05/16 03:14:14;;;;;;;31.38;9.65;;;11.00;99.90;;;;;;4729277;30;20051;-78
2021/05/16 03:16:41;;;;;;;28.77;9.75;;;11.00;99.90;;;;;;4728729;30;20048;-78
2021/05/16 03:19:07;;;;;;;32.17;9.27;;;11.00;99.90;;;;;;4741113;30;20055;-78
2021/05/16 03:21:46;;;;;;;34.63;9.50;;;10.90;99.90;;;;;;4729886;30;20048;-78
2021/05/16 03:24:12;;;;;;;30.45;8.80;;;10.90;99.90;;;;;;4744625;30;20059;-78
2021/05/16 03:26:41;;;;;;;31.75;8.45;;;10.90;99.90;;;;;;4741033;30;20056;-78
2021/05/16 03:29:08;;;;;;;28.67;8.10;;;10.90;99.90;;;;;;4729537;30;20471;-78
2021/05/16 03:31:35;;;;;;;22.70;6.57;;;10.90;99.90;;;;;;4729321;30;20028;-78
2021/05/16 03:34:03;;;;;;;29.00;7.45;;;10.90;99.90;;;;;;4731641;30;20492;-78
2021/05/16 03:36:29;;;;;;;27.58;8.27;;;10.90;99.90;;;;;;4743017;30;20055;-78
2021/05/16 03:38:56;;;;;;;29.55;7.90;;;10.90;99.90;;;;;;4743581;30;20309;-77
2021/05/16 03:41:23;;;;;;;25.73;6.55;;;10.90;99.90;;;;;;4727205;30;20044;-78
2021/05/16 03:43:50;;;;;;;26.67;6.75;;;10.90;99.90;;;;;;4743061;30;20068;-78
2021/05/16 03:46:17;;;;;;;27.75;8.50;;;10.90;99.90;;;;;;4728980;30;20059;-78
2021/05/16 03:48:44;;;;;;;22.08;6.90;;;11.00;99.90;;;;;;4727530;30;20048;-78
2021/05/16 03:51:11;;;;;;;22.30;5.88;;;10.90;99.90;;;;;;4713789;30;20144;-78
2021/05/16 03:53:38;;;;;;;25.42;6.95;;;10.90;99.90;;;;;;4742452;30;20420;-78
2021/05/16 03:56:07;;;;;;;32.03;9.55;;;11.00;99.90;;;;;;4729883;30;20386;-78
2021/05/16 03:58:34;;;;;;;31.00;9.18;;;11.00;99.90;;;;;;4727932;30;20159;-78
2021/05/16 04:01:00;;;;;;;31.63;9.95;;;11.00;99.90;;;;;;4740154;30;20409;-78
2021/05/16 04:03:27;;;;;;;32.97;9.27;;;11.00;99.90;;;;;;4743150;30;20040;-79
2021/05/16 04:05:53;;;;;;;33.50;10.07;;;10.90;99.90;;;;;;4716510;30;20047;-78
2021/05/16 04:08:20;;;;;;;30.27;10.93;;;10.90;99.90;;;;;;4744006;30;20587;-78
2021/05/16 04:10:47;;;;;;;32.92;9.65;;;10.90;99.90;;;;;;4728853;30;20088;-78
2021/05/16 04:13:13;;;;;;;30.95;9.90;;;10.90;99.90;;;;;;4742258;30;20051;-78
2021/05/16 04:15:40;;;;;;;32.85;10.57;;;10.90;99.90;;;;;;4716261;30;20087;-78
2021/05/16 04:18:08;;;;;;;34.92;10.93;;;10.90;99.90;;;;;;4743988;30;20052;-77
2021/05/16 04:20:34;;;;;;;37.42;11.77;;;10.90;99.90;;;;;;4712595;30;20106;-79
2021/05/16 04:23:01;;;;;;;36.10;11.77;;;10.90;99.90;;;;;;4720210;30;20063;-79
2021/05/16 04:25:28;;;;;;;35.83;11.20;;;10.90;99.90;;;;;;4716234;30;20071;-79
2021/05/16 04:27:55;;;;;;;29.45;11.50;;;10.90;99.90;;;;;;4742250;30;20051;-79
2021/05/16 04:30:22;;;;;;;42.67;13.32;;;10.90;99.90;;;;;;4741794;30;20048;-79
2021/05/16 04:32:49;;;;;;;44.92;15.43;;;10.90;99.90;;;;;;4741719;30;20052;-79
2021/05/16 04:35:15;;;;;;;39.72;13.40;;;10.90;99.90;;;;;;4742873;30;20052;-79
2021/05/16 04:37:42;;;;;;;36.10;12.95;;;10.90;99.90;;;;;;4743193;30;20056;-79
2021/05/16 04:40:09;;;;;;;45.08;13.48;;;10.90;99.90;;;;;;4727950;30;20040;-79
2021/05/16 04:42:35;;;;;;;36.85;14.25;;;10.90;99.90;;;;;;4728599;30;20052;-79
2021/05/16 04:45:02;;;;;;;37.70;12.60;;;11.00;99.90;;;;;;4727480;30;20488;-79
2021/05/16 04:47:29;;;;;;;36.60;12.25;;;11.00;99.90;;;;;;4727224;30;20377;-79
2021/05/16 04:49:55;;;;;;;42.28;14.25;;;11.00;99.90;;;;;;4742002;30;20063;-79
2021/05/16 04:52:22;;;;;;;42.33;15.25;;;11.00;99.90;;;;;;4728092;30;20048;-79
2021/05/16 04:54:48;;;;;;;41.35;14.02;;;11.00;99.90;;;;;;4743945;30;20087;-79
2021/05/16 04:57:15;;;;;;;45.50;14.48;;;11.00;99.90;;;;;;4729118;30;20040;-79
2021/05/16 04:59:41;;;;;;;35.28;11.95;;;11.00;99.90;;;;;;4741253;30;20052;-78
2021/05/16 05:02:08;;;;;;;38.40;12.55;;;11.00;99.90;;;;;;4712666;30;20040;-79
2021/05/16 05:04:37;;;;;;;36.65;13.50;;;11.00;99.90;;;;;;4712911;30;20052;-78
2021/05/16 05:07:04;;;;;;;49.97;15.55;;;11.00;99.90;;;;;;4727115;30;20044;-79
2021/05/16 05:09:35;;;;;;;37.42;13.30;;;11.00;99.90;;;;;;4724883;30;20055;-79
2021/05/16 05:12:05;;;;;;;41.80;14.48;;;11.00;99.90;;;;;;4743270;30;20051;-79
2021/05/16 05:14:31;;;;;;;34.38;13.30;;;11.00;99.90;;;;;;4727980;30;20048;-79
2021/05/16 05:16:58;;;;;;;41.17;13.88;;;11.00;99.90;;;;;;4728673;30;20052;-79
2021/05/16 05:19:24;;;;;;;39.33;13.35;;;11.00;99.90;;;;;;4743896;30;20075;-78
2021/05/16 05:21:51;;;;;;;35.75;12.77;;;11.00;99.90;;;;;;4740584;30;20058;-79
2021/05/16 05:24:18;;;;;;;45.97;14.88;;;11.00;99.90;;;;;;4713992;30;20071;-79
2021/05/16 05:26:44;;;;;;;37.40;14.02;;;11.10;99.90;;;;;;4725815;30;20045;-79
2021/05/16 05:29:11;;;;;;;33.92;13.38;;;11.10;99.90;;;;;;4726597;30;20048;-78
2021/05/16 05:31:37;;;;;;;38.10;13.60;;;11.10;99.90;;;;;;4726305;30;20103;-78
2021/05/16 05:34:04;;;;;;;34.90;13.40;;;11.10;99.90;;;;;;4715202;30;20500;-79
2021/05/16 05:36:30;;;;;;;30.63;13.65;;;11.10;99.90;;;;;;4727973;30;20068;-79
2021/05/16 05:38:57;;;;;;;33.15;13.15;;;11.20;99.90;;;;;;4743401;30;20052;-78
2021/05/16 05:41:24;;;;;;;43.28;14.30;;;11.10;99.90;;;;;;4726133;30;20056;-79
2021/05/16 05:43:50;;;;;;;30.92;12.10;;;11.10;99.90;;;;;;4744023;30;20068;-78
2021/05/16 05:46:17;;;;;;;36.33;14.15;;;11.10;99.90;;;;;;4741657;30;20040;-79
2021/05/16 05:48:43;;;;;;;42.90;14.45;;;11.10;99.90;;;;;;4743803;30;20052;-79
2021/05/16 05:51:10;;;;;;;40.53;14.57;;;11.10;99.90;;;;;;4740350;30;20048;-78
2021/05/16 05:53:36;;;;;;;30.02;12.85;;;11.10;99.90;;;;;;4713451;30;20119;-78
2021/05/16 05:56:03;;;;;;;29.20;12.25;;;11.10;99.90;;;;;;4743525;30;20401;-79
2021/05/16 05:58:33;;;;;;;37.90;14.43;;;11.20;99.90;;;;;;4742922;30;20059;-78
2021/05/16 06:00:59;;;;;;;33.72;14.60;;;11.20;99.90;;;;;;4741797;30;20044;-79
2021/05/16 06:03:26;;;;;;;36.60;15.60;;;11.20;99.90;;;;;;4712340;30;20044;-78
2021/05/16 06:05:52;;;;;;;40.83;16.27;;;11.20;99.90;;;;;;4724872;30;20635;-79
2021/05/16 06:08:19;;;;;;;35.60;13.57;;;11.20;99.90;;;;;;4712614;30;20040;-78
2021/05/16 06:10:46;;;;;;;41.70;15.13;;;11.30;99.90;;;;;;4712694;30;20043;-78
2021/05/16 06:13:13;;;;;;;34.95;13.38;;;11.30;99.90;;;;;;4713245;30;20408;-78
2021/05/16 06:15:40;;;;;;;37.08;15.07;;;11.30;99.90;;;;;;4742344;30;20445;-78
2021/05/16 06:18:07;;;;;;;41.78;14.45;;;11.40;99.90;;;;;;4727839;30;20057;-78
2021/05/16 06:20:34;;;;;;;31.23;14.35;;;11.40;99.90;;;;;;4743479;30;20794;-79
2021/05/16 06:23:03;;;;;;;39.90;15.02;;;11.40;99.90;;;;;;4731762;30;20428;-79
2021/05/16 06:25:30;;;;;;;45.33;15.18;;;11.40;99.90;;;;;;4728697;30;20389;-79
2021/05/16 06:27:57;;;;;;;47.67;17.48;;;11.50;99.90;;;;;;4744854;30;20052;-79
2021/05/16 06:30:24;;;;;;;44.17;17.80;;;11.60;99.90;;;;;;4744635;30;20051;-78
2021/05/16 06:32:50;;;;;;;50.15;18.20;;;11.60;99.90;;;;;;4744422;30;20075;-78
2021/05/16 06:35:17;;;;;;;33.17;16.27;;;11.60;99.90;;;;;;4743210;30;20048;-78
2021/05/16 06:37:45;;;;;;;43.10;16.63;;;11.70;99.90;;;;;;4743890;30;20064;-78
2021/05/16 06:40:13;;;;;;;35.70;15.93;;;11.70;99.90;;;;;;4742769;30;20543;-78
2021/05/16 06:42:42;;;;;;;41.35;16.23;;;11.80;99.90;;;;;;4744931;30;20133;-78
2021/05/16 06:45:11;;;;;;;37.63;15.30;;;11.80;99.90;;;;;;4715023;30;20044;-78
2021/05/16 06:47:38;;;;;;;37.15;14.43;;;11.90;99.90;;;;;;4744779;30;20048;-78
2021/05/16 06:50:06;;;;;;;32.10;14.63;;;11.90;99.90;;;;;;4742598;30;20048;-78
2021/05/16 06:52:34;;;;;;;39.80;15.48;;;12.00;99.90;;;;;;4743068;30;20141;-78
2021/05/16 06:55:01;;;;;;;40.63;15.65;;;12.00;99.90;;;;;;4745220;30;20412;-78
2021/05/16 06:57:27;;;;;;;33.60;13.20;;;12.10;99.90;;;;;;4745753;30;20044;-78
2021/05/16 06:59:54;;;;;;;32.03;14.25;;;12.20;99.90;;;;;;4742474;30;20760;-78
2021/05/16 07:02:20;;;;;;;37.50;14.60;;;12.20;99.90;;;;;;4728816;30;20048;-78
2021/05/16 07:04:48;;;;;;;29.08;13.38;;;12.30;99.90;;;;;;4700328;30;20052;-80
2021/05/16 07:07:15;;;;;;;30.67;12.93;;;12.40;99.90;;;;;;4729485;30;20048;-80
2021/05/16 07:09:42;;;;;;;40.25;13.30;;;12.50;99.90;;;;;;4747796;30;20047;-80
2021/05/16 07:12:10;;;;;;;26.20;11.43;;;12.60;99.90;;;;;;4731173;30;20052;-80
2021/05/16 07:14:37;;;;;;;30.08;11.88;;;12.70;99.90;;;;;;4730103;30;20068;-80
2021/05/16 07:17:03;;;;;;;32.85;12.10;;;12.80;99.90;;;;;;4731295;30;20068;-80
2021/05/16 07:19:30;;;;;;;26.98;10.43;;;12.90;99.90;;;;;;4731106;30;20047;-80
2021/05/16 07:21:56;;;;;;;32.90;10.85;;;13.10;99.90;;;;;;4730605;30;20055;-80
2021/05/16 07:24:23;;;;;;;29.77;11.07;;;13.30;99.90;;;;;;4731238;30;20068;-80
2021/05/16 07:26:49;;;;;;;27.95;10.55;;;13.30;99.90;;;;;;4746753;30;20048;-80
2021/05/16 07:29:16;;;;;;;27.33;9.93;;;13.30;99.90;;;;;;4729781;30;20051;-80
2021/05/16 07:31:43;;;;;;;28.50;10.45;;;13.30;99.90;;;;;;4744451;30;20045;-80
2021/05/16 07:34:09;;;;;;;27.25;9.77;;;13.30;99.90;;;;;;4729848;30;20056;-78
2021/05/16 07:36:36;;;;;;;26.75;10.73;;;13.20;99.90;;;;;;4745942;30;20071;-80
2021/05/16 07:39:03;;;;;;;32.33;11.15;;;13.10;99.90;;;;;;4716099;30;20051;-80
2021/05/16 07:41:30;;;;;;;32.58;11.75;;;13.10;99.90;;;;;;4716638;30;20056;-80
2021/05/16 07:43:56;;;;;;;32.88;10.30;;;13.10;99.90;;;;;;4746475;30;20044;-80
2021/05/16 07:46:23;;;;;;;22.77;9.40;;;13.10;99.90;;;;;;4730322;30;20048;-80
2021/05/16 07:48:49;;;;;;;28.83;9.98;;;13.10;99.90;;;;;;4745049;30;20071;-80
2021/05/16 07:51:16;;;;;;;24.77;9.05;;;13.10;99.90;;;;;;4743387;30;20386;-78
2021/05/16 07:53:43;;;;;;;25.67;9.18;;;13.10;99.90;;;;;;4741779;30;20052;-78
2021/05/16 07:56:10;;;;;;;28.98;9.25;;;13.00;99.90;;;;;;4744813;30;20056;-78
2021/05/16 07:58:37;;;;;;;30.77;9.52;;;13.00;99.90;;;;;;4742472;30;21162;-78
2021/05/16 08:01:04;;;;;;;28.77;9.73;;;13.00;99.90;;;;;;4741361;30;20052;-78
2021/05/16 08:03:30;;;;;;;27.02;10.18;;;12.90;99.90;;;;;;4741394;30;20098;-78
2021/05/16 08:05:57;;;;;;;31.23;11.30;;;12.90;99.90;;;;;;4741803;30;20944;-78
2021/05/16 08:08:24;;;;;;;34.75;10.10;;;12.80;99.90;;;;;;4743356;30;20040;-78
2021/05/16 08:10:51;;;;;;;28.10;10.68;;;12.80;99.90;;;;;;4727300;30;20063;-78
2021/05/16 08:13:18;;;;;;;26.92;11.43;;;12.90;99.90;;;;;;4727436;30;20052;-78
2021/05/16 08:15:44;;;;;;;29.23;11.50;;;12.90;99.90;;;;;;4726822;30;20048;-78
2021/05/16 08:18:11;;;;;;;32.95;11.73;;;13.00;99.90;;;;;;4728350;30;20104;-78
2021/05/16 08:20:38;;;;;;;29.33;12.60;;;13.20;99.90;;;;;;4740450;30;20057;-78
2021/05/16 08:23:05;;;;;;;33.15;12.75;;;13.40;99.90;;;;;;4743764;30;20051;-78
2021/05/16 08:25:33;;;;;;;28.50;13.25;;;13.50;99.50;;;;;;4742486;30;20079;-78
2021/05/16 08:28:00;;;;;;;30.05;14.25;;;13.60;99.40;;;;;;4729206;30;20315;-78
2021/05/16 08:30:28;;;;;;;28.10;12.57;;;13.70;99.20;;;;;;4741292;30;20067;-75
2021/05/16 08:32:55;;;;;;;27.42;12.82;;;13.80;99.20;;;;;;4727630;30;20493;-75
2021/05/16 08:35:22;;;;;;;22.73;12.90;;;13.90;99.10;;;;;;4741925;30;20064;-75
2021/05/16 08:37:48;;;;;;;28.10;12.82;;;14.00;99.00;;;;;;4728763;30;20056;-75
2021/05/16 08:40:16;;;;;;;28.70;13.55;;;14.20;98.90;;;;;;4743166;30;20051;-75
2021/05/16 08:42:43;;;;;;;30.15;13.30;;;14.40;98.40;;;;;;4742910;30;20437;-76
2021/05/16 08:45:12;;;;;;;31.65;14.95;;;14.40;98.20;;;;;;4725394;30;20063;-78
2021/05/16 08:47:42;;;;;;;30.10;13.48;;;14.50;98.00;;;;;;4741333;30;20056;-77
2021/05/16 08:50:17;;;;;;;22.48;11.88;;;14.40;97.50;;;;;;4742960;30;20039;-78
2021/05/16 08:52:45;;;;;;;28.48;11.85;;;14.40;97.40;;;;;;4743117;30;20051;-77
2021/05/16 08:55:13;;;;;;;29.98;12.68;;;14.40;97.50;;;;;;4711742;30;20042;-78
2021/05/16 08:57:40;;;;;;;27.42;13.52;;;14.50;97.40;;;;;;4729320;30;20048;-78
2021/05/16 09:00:08;;;;;;;28.33;11.70;;;14.70;97.00;;;;;;4725028;30;20087;-75
2021/05/16 09:02:59;;;;;;;26.38;11.18;;;14.70;96.30;;;;;;4743770;30;20051;-75
2021/05/16 09:05:28;;;;;;;25.45;10.77;;;14.70;96.30;;;;;;4726145;30;20043;-74
2021/05/16 09:07:59;;;;;;;28.33;11.38;;;14.60;96.40;;;;;;4727883;30;20047;-75
2021/05/16 09:10:26;;;;;;;23.80;9.90;;;14.70;96.70;;;;;;4725810;30;20079;-75
2021/05/16 09:13:05;;;;;;;28.10;11.63;;;15.00;96.90;;;;;;4743752;30;20055;-78
2021/05/16 09:15:32;;;;;;;28.17;11.45;;;15.30;95.90;;;;;;4744080;30;20070;-79
2021/05/16 09:17:58;;;;;;;27.80;12.50;;;15.60;95.50;;;;;;4744621;30;20531;-76
2021/05/16 09:20:25;;;;;;;19.63;10.15;;;15.80;95.00;;;;;;4728457;30;20055;-77
2021/05/16 09:22:52;;;;;;;22.23;8.98;;;16.10;95.20;;;;;;4742514;30;20047;-77
2021/05/16 09:25:22;;;;;;;26.83;10.35;;;16.30;94.40;;;;;;4713354;30;20055;-77
2021/05/16 09:27:50;;;;;;;24.13;9.82;;;16.30;94.00;;;;;;4743340;30;20128;-78
2021/05/16 09:30:17;;;;;;;22.92;9.32;;;16.40;93.60;;;;;;4740264;30;20417;-77
2021/05/16 09:32:57;;;;;;;17.60;7.90;;;16.60;93.20;;;;;;4743767;30;20055;-77
2021/05/16 09:35:32;;;;;;;16.48;7.72;;;16.80;92.70;;;;;;4740390;30;20040;-77
2021/05/16 09:38:04;;;;;;;18.58;7.60;;;16.90;92.80;;;;;;4741806;30;20055;-77
2021/05/16 09:40:38;;;;;;;22.57;7.63;;;16.90;92.40;;;;;;4726695;30;20552;-76
2021/05/16 09:43:10;;;;;;;20.52;7.82;;;17.00;92.00;;;;;;4741960;30;20309;-76
2021/05/16 09:45:44;;;;;;;18.75;7.00;;;17.10;91.80;;;;;;4741647;30;20047;-77
2021/05/16 09:48:31;;;;;;;17.35;7.13;;;17.20;91.00;;;;;;4741251;30;20036;-77
2021/05/16 09:51:21;;;;;;;19.50;7.03;;;17.40;91.20;;;;;;4710684;30;20036;-77
2021/05/16 09:53:50;;;;;;;15.88;6.45;;;17.50;90.50;;;;;;4741538;30;20055;-76
2021/05/16 09:56:19;;;;;;;16.92;6.35;;;17.50;90.90;;;;;;4744907;30;20044;-77
2021/05/16 09:58:46;;;;;;;20.20;7.80;;;17.60;90.90;;;;;;4745656;30;20044;-77
2021/05/16 10:01:14;;;;;;;13.60;5.82;;;17.80;90.60;;;;;;4745293;30;20036;-76
2021/05/16 10:03:41;;;;;;;13.93;4.97;;;17.90;89.90;;;;;;4746523;30;20048;-77
2021/05/16 10:06:09;;;;;;;10.80;4.28;;;18.10;89.40;;;;;;4730349;30;20101;-77
2021/05/16 10:08:36;;;;;;;16.25;5.55;;;18.40;88.30;;;;;;4746059;30;20040;-77
2021/05/16 10:11:04;;;;;;;15.02;5.10;;;18.70;86.20;;;;;;4744110;30;20051;-76
2021/05/16 10:13:34;;;;;;;10.65;3.75;;;18.90;84.30;;;;;;4746060;30;20401;-77
2021/05/16 10:16:02;;;;;;;15.50;3.90;;;19.10;83.30;;;;;;4733529;30;20040;-77
2021/05/16 10:18:32;;;;;;;12.85;3.20;;;19.30;80.80;;;;;;4745573;30;20064;-76
2021/05/16 10:21:04;;;;;;;13.60;3.17;;;19.30;79.40;;;;;;4744296;30;20227;-76
2021/05/16 10:23:36;;;;;;;13.23;3.00;;;19.50;78.90;;;;;;4743400;30;20848;-76
2021/05/16 10:26:18;;;;;;;10.73;2.72;;;19.50;77.90;;;;;;4744003;30;20040;-76
2021/05/16 10:29:06;;;;;;;15.40;3.05;;;19.40;77.00;;;;;;4743660;30;20051;-76
2021/05/16 10:31:49;;;;;;;15.73;3.35;;;19.30;76.30;;;;;;4744779;30;20058;-75
2021/05/16 10:34:28;;;;;;;16.60;4.28;;;19.10;76.50;;;;;;4746722;30;20048;-79
2021/05/16 10:36:56;;;;;;;17.58;5.07;;;19.00;76.70;;;;;;4738811;30;20067;-76
2021/05/16 10:39:41;;;;;;;16.60;6.10;;;19.00;76.70;;;;;;4729509;30;20047;-76
2021/05/16 10:42:17;;;;;;;12.13;2.85;;;19.10;77.30;;;;;;4731512;30;20035;-76
2021/05/16 10:45:15;;;;;;;11.23;2.53;;;19.10;77.60;;;;;;4727814;30;20393;-76
2021/05/16 10:47:45;;;;;;;13.85;3.50;;;18.90;76.30;;;;;;4744627;30;20067;-79
2021/05/16 10:50:31;;;;;;;14.70;2.47;;;18.80;76.40;;;;;;4745227;30;20072;-79
2021/05/16 10:53:21;;;;;;;9.07;2.33;;;18.70;75.90;;;;;;4743266;30;20480;-78
2021/05/16 10:56:01;;;;;;;13.85;2.58;;;18.60;76.60;;;;;;4743389;30;20040;-78
2021/05/16 10:58:33;;;;;;;10.35;1.90;;;18.80;77.00;;;;;;4729594;30;20044;-77
2021/05/16 11:01:04;;;;;;;9.07;1.52;;;19.10;77.20;;;;;;4744263;30;20063;-79
2021/05/16 11:03:45;;;;;;;9.57;2.33;;;19.40;76.80;;;;;;4717365;30;20052;-79
2021/05/16 11:06:14;;;;;;;10.63;1.63;;;19.60;74.30;;;;;;4729984;30;20044;-79
2021/05/16 11:08:40;;;;;;;7.55;1.40;;;19.60;73.90;;;;;;4729741;30;20044;-79
2021/05/16 11:11:37;;;;;;;13.13;1.95;;;19.50;74.10;;;;;;4728720;30;20036;-76
2021/05/16 11:14:17;;;;;;;11.30;1.85;;;19.20;73.10;;;;;;4745268;30;20396;-77
2021/05/16 11:16:50;;;;;;;10.55;1.67;;;18.90;74.40;;;;;;4742121;30;20051;-77
2021/05/16 11:19:19;;;;;;;9.82;1.50;;;19.10;75.70;;;;;;4727478;30;20052;-76
2021/05/16 11:21:45;;;;;;;10.93;1.80;;;19.50;75.70;;;;;;4744067;30;20036;-77
2021/05/16 11:24:12;;;;;;;10.23;2.58;;;20.20;74.20;;;;;;4745301;30;20040;-78
2021/05/16 11:26:39;;;;;;;11.18;1.90;;;20.80;71.70;;;;;;4727452;30;20071;-78
2021/05/16 11:29:05;;;;;;;7.82;1.38;;;21.40;71.30;;;;;;4729401;30;20051;-76
2021/05/16 11:31:33;;;;;;;6.78;1.70;;;22.00;69.30;;;;;;4727659;30;20052;-78
2021/05/16 11:34:05;;;;;;;9.80;1.75;;;22.10;69.00;;;;;;4714614;30;20051;-78
2021/05/16 11:36:33;;;;;;;10.63;1.88;;;22.00;69.00;;;;;;4743889;30;20052;-77
2021/05/16 11:39:03;;;;;;;10.75;2.75;;;22.20;68.70;;;;;;4743805;30;20059;-77
2021/05/16 11:41:36;;;;;;;9.95;2.80;;;22.70;67.40;;;;;;4727654;30;20409;-77
2021/05/16 11:44:08;;;;;;;8.93;1.55;;;23.20;66.10;;;;;;4718273;30;20040;-76
2021/05/16 11:46:39;;;;;;;8.02;1.67;;;23.00;65.10;;;;;;4728484;30;20063;-77
2021/05/16 11:49:07;;;;;;;12.77;2.03;;;22.40;64.60;;;;;;4720335;30;20055;-77
2021/05/16 11:51:34;;;;;;;10.90;1.85;;;21.70;64.10;;;;;;4726335;30;20048;-77
2021/05/16 11:54:07;;;;;;;7.85;1.55;;;20.60;66.30;;;;;;4718973;30;20044;-77
2021/05/16 11:56:43;;;;;;;7.70;1.42;;;19.80;67.80;;;;;;4743528;30;20040;-78
2021/05/16 11:59:10;;;;;;;8.90;1.10;;;18.80;72.10;;;;;;4728861;30;20047;-77
2021/05/16 12:01:39;;;;;;;9.43;1.23;;;17.90;74.90;;;;;;4726774;30;20055;-76
2021/05/16 12:04:08;;;;;;;6.82;0.80;;;17.40;77.10;;;;;;4745873;30;20409;-76
2021/05/16 12:06:54;;;;;;;4.78;1.05;;;17.00;78.20;;;;;;4725288;30;20059;-76
2021/05/16 12:09:22;;;;;;;3.33;0.65;;;16.90;79.40;;;;;;4728828;30;20040;-76
2021/05/16 12:11:53;;;;;;;6.57;1.00;;;16.70;80.30;;;;;;4742507;30;20075;-76
2021/05/16 12:14:24;;;;;;;11.10;5.43;;;16.70;81.10;;;;;;4743605;30;20044;-76
2021/05/16 12:16:59;;;;;;;6.85;1.20;;;16.60;81.90;;;;;;4726668;30;20044;-76
2021/05/16 12:19:31;;;;;;;7.15;1.70;;;16.80;82.70;;;;;;4726552;30;20064;-76
2021/05/16 12:22:03;;;;;;;7.07;0.77;;;17.00;82.20;;;;;;4741239;30;20055;-76
2021/05/16 12:24:32;;;;;;;3.00;0.52;;;17.30;81.40;;;;;;4743619;30;20044;-76
2021/05/16 12:26:59;;;;;;;4.68;0.65;;;17.50;81.30;;;;;;4742993;30;20516;-76
2021/05/16 12:29:27;;;;;;;4.13;0.70;;;17.60;81.30;;;;;;4742745;30;20056;-77
2021/05/16 12:31:54;;;;;;;6.65;0.60;;;18.00;81.70;;;;;;4742912;30;20043;-77
2021/05/16 12:34:25;;;;;;;2.72;0.50;;;18.70;78.90;;;;;;4742417;30;20048;-76
2021/05/16 12:36:57;;;;;;;4.03;0.70;;;19.40;77.10;;;;;;4741940;30;21548;-77
2021/05/16 12:39:33;;;;;;;4.18;0.57;;;20.00;73.70;;;;;;4719294;30;20055;-77
2021/05/16 12:42:00;;;;;;;3.95;0.50;;;20.50;73.40;;;;;;4716056;30;20052;-77